Time;durP1;ratioP1;P1;durP2;ratioP2;P2;SDS_P1;SDS_P2;PMS_P1;PMS_P2;Temp;Humidity;BMP_temperature;BMP_pressure;BME280_temperature;BME280_humidity;BME280_pressure;Samples;Min_cycle;Max_cycle;Signal;HPM_P1;HPM_P2
2022/06/07 00:00:25;;;;;;;0.40;0.35;;;11.80;99.90;;;;;;5023783;28;20179;-61
2022/06/07 00:02:50;;;;;;;0.00;0.00;;;11.80;99.90;;;;;;5023540;28;20083;-61
2022/06/07 00:05:17;;;;;;;0.05;0.05;;;11.80;99.90;;;;;;5023389;28;20041;-60
2022/06/07 00:07:43;;;;;;;0.20;0.20;;;11.80;99.90;;;;;;5022981;28;20117;-61
2022/06/07 00:10:10;;;;;;;0.00;0.00;;;11.80;99.90;;;;;;5022942;28;20148;-60
2022/06/07 00:12:36;;;;;;;0.73;0.15;;;11.80;99.90;;;;;;5023371;28;20060;-62
2022/06/07 00:15:03;;;;;;;0.13;0.13;;;11.80;99.90;;;;;;5022135;28;20049;-62
2022/06/07 00:17:28;;;;;;;0.00;0.00;;;11.80;99.90;;;;;;5023166;28;20045;-62
2022/06/07 00:19:54;;;;;;;0.20;0.10;;;11.80;99.90;;;;;;5038530;28;20052;-61
2022/06/07 00:22:19;;;;;;;0.00;0.00;;;11.80;99.90;;;;;;5022084;28;20041;-61
2022/06/07 00:24:45;;;;;;;0.22;0.22;;;11.80;99.90;;;;;;5022754;28;20044;-60
2022/06/07 00:27:12;;;;;;;0.45;0.10;;;11.80;99.90;;;;;;5023327;28;20048;-62
2022/06/07 00:29:39;;;;;;;0.40;0.40;;;11.90;99.90;;;;;;5022431;28;20088;-61
2022/06/07 00:32:05;;;;;;;0.00;0.00;;;11.90;99.90;;;;;;5022894;28;20045;-62
2022/06/07 00:34:32;;;;;;;3.45;0.10;;;11.80;99.90;;;;;;5022881;28;20092;-61
2022/06/07 00:36:57;;;;;;;0.00;0.00;;;11.80;99.90;;;;;;5022861;28;20129;-63
2022/06/07 00:39:23;;;;;;;0.47;0.47;;;11.80;99.90;;;;;;5022941;28;20519;-61
2022/06/07 00:41:49;;;;;;;0.05;0.05;;;11.90;99.90;;;;;;5020615;28;20049;-61
2022/06/07 00:44:20;;;;;;;0.00;0.00;;;11.90;99.90;;;;;;5022689;28;20060;-62
2022/06/07 00:46:50;;;;;;;0.22;0.22;;;11.90;99.90;;;;;;5032264;28;20045;-60
2022/06/07 00:49:17;;;;;;;0.15;0.10;;;11.80;99.90;;;;;;5021754;28;20419;-61
2022/06/07 00:51:46;;;;;;;0.03;0.03;;;11.80;99.90;;;;;;5023361;28;20404;-61
2022/06/07 00:54:24;;;;;;;0.35;0.30;;;11.80;99.90;;;;;;5023113;28;20534;-61
2022/06/07 00:56:51;;;;;;;0.30;0.20;;;11.80;99.90;;;;;;5020353;28;20050;-61
2022/06/07 00:59:16;;;;;;;0.85;0.50;;;11.80;99.90;;;;;;5021562;28;20180;-62
2022/06/07 01:01:42;;;;;;;0.00;0.00;;;11.80;99.90;;;;;;5022027;28;20133;-61
2022/06/07 01:04:08;;;;;;;1.08;0.30;;;11.90;99.90;;;;;;5021465;28;20054;-61
2022/06/07 01:12:04;;;;;;;0.80;0.30;;;11.90;99.90;;;;;;5022519;28;20057;-61
2022/06/07 01:14:30;;;;;;;0.22;0.20;;;11.90;99.90;;;;;;5021177;28;20703;-62
2022/06/07 01:16:56;;;;;;;0.93;0.35;;;11.90;99.90;;;;;;5003995;28;20132;-62
2022/06/07 01:19:21;;;;;;;1.60;0.28;;;11.70;99.90;;;;;;5022140;28;20078;-61
2022/06/07 01:21:47;;;;;;;0.35;0.35;;;11.90;99.90;;;;;;5022010;28;20041;-61
2022/06/07 01:24:15;;;;;;;0.30;0.15;;;11.90;99.90;;;;;;5022182;28;20038;-63
2022/06/07 01:26:41;;;;;;;0.38;0.38;;;12.00;99.90;;;;;;5021349;28;20041;-61
2022/06/07 01:29:07;;;;;;;0.00;0.00;;;11.90;99.90;;;;;;5021893;28;20045;-61
2022/06/07 01:31:33;;;;;;;0.35;0.30;;;11.90;99.90;;;;;;5021893;28;20131;-61
2022/06/07 01:33:59;;;;;;;0.45;0.25;;;12.00;99.90;;;;;;5021493;28;20045;-62
2022/06/07 01:36:25;;;;;;;0.73;0.35;;;11.90;99.90;;;;;;5020356;28;20042;-61
2022/06/07 01:41:54;;;;;;;0.38;0.35;;;12.00;99.90;;;;;;5020812;28;20445;-61
2022/06/07 01:44:31;;;;;;;0.20;0.20;;;11.90;99.90;;;;;;5020916;28;20427;-61
2022/06/07 01:46:59;;;;;;;0.10;0.10;;;12.00;99.90;;;;;;5029648;28;20041;-60
2022/06/07 01:49:25;;;;;;;0.10;0.10;;;12.00;99.90;;;;;;5021492;28;20041;-62
2022/06/07 01:51:52;;;;;;;0.22;0.20;;;12.00;99.90;;;;;;5020145;28;20485;-61
2022/06/07 01:54:20;;;;;;;0.20;0.20;;;12.00;99.90;;;;;;5020740;28;20207;-61
2022/06/07 01:56:46;;;;;;;0.03;0.03;;;12.00;99.90;;;;;;5020300;28;20047;-61
2022/06/07 01:59:12;;;;;;;0.05;0.05;;;12.00;99.90;;;;;;5021088;28;20077;-61
2022/06/07 02:01:38;;;;;;;0.20;0.10;;;12.00;99.90;;;;;;5020923;28;20595;-61
2022/06/07 02:04:05;;;;;;;0.28;0.28;;;12.00;99.90;;;;;;5020677;28;20077;-61
2022/06/07 02:06:31;;;;;;;0.45;0.45;;;12.00;99.90;;;;;;5021005;28;20088;-61
2022/06/07 02:08:57;;;;;;;0.10;0.10;;;12.10;99.90;;;;;;5035996;28;20248;-60
2022/06/07 02:11:25;;;;;;;0.28;0.13;;;12.10;99.90;;;;;;5020137;28;20053;-61
2022/06/07 02:13:52;;;;;;;1.25;1.13;;;12.10;99.90;;;;;;5020280;28;20050;-60
2022/06/07 02:16:19;;;;;;;0.50;0.20;;;12.20;99.90;;;;;;5021096;28;20064;-61
2022/06/07 02:18:46;;;;;;;0.30;0.30;;;12.20;99.90;;;;;;5021312;28;20051;-61
2022/06/07 02:21:12;;;;;;;0.13;0.10;;;12.20;99.90;;;;;;5019366;28;20042;-61
2022/06/07 02:23:39;;;;;;;0.32;0.10;;;12.20;99.90;;;;;;5021101;28;20107;-61
2022/06/07 02:26:18;;;;;;;0.57;0.30;;;12.20;99.90;;;;;;5020752;28;20103;-61
2022/06/07 02:28:52;;;;;;;0.63;0.47;;;12.20;99.90;;;;;;5019010;28;20049;-61
2022/06/07 02:31:19;;;;;;;0.25;0.10;;;12.20;99.90;;;;;;5020211;28;20081;-62
2022/06/07 02:33:46;;;;;;;1.33;0.15;;;12.20;99.90;;;;;;5019596;28;20046;-61
2022/06/07 02:36:12;;;;;;;0.22;0.22;;;12.20;99.90;;;;;;5021171;28;20411;-61
2022/06/07 02:38:39;;;;;;;0.00;0.00;;;12.30;99.90;;;;;;5020607;28;20112;-62
2022/06/07 02:41:09;;;;;;;0.10;0.10;;;12.30;99.90;;;;;;5020410;28;20045;-61
2022/06/07 02:43:34;;;;;;;0.28;0.28;;;12.30;99.90;;;;;;5018948;28;20038;-62
2022/06/07 02:46:00;;;;;;;0.00;0.00;;;12.30;99.90;;;;;;5030816;28;20458;-63
2022/06/07 02:48:26;;;;;;;0.43;0.40;;;12.30;99.90;;;;;;5021225;28;20124;-62
2022/06/07 02:50:54;;;;;;;0.00;0.00;;;12.30;99.90;;;;;;5019662;28;20056;-61
2022/06/07 02:53:20;;;;;;;0.43;0.25;;;12.30;99.90;;;;;;5018587;28;20077;-62
2022/06/07 02:55:46;;;;;;;1.73;0.40;;;12.30;99.90;;;;;;5020607;28;20432;-60
2022/06/07 02:58:11;;;;;;;0.15;0.05;;;12.30;99.90;;;;;;5020100;28;20124;-62
2022/06/07 03:00:37;;;;;;;3.72;2.85;;;12.30;99.90;;;;;;5019466;28;20547;-62
2022/06/07 03:03:03;;;;;;;0.15;0.13;;;12.30;99.90;;;;;;5019273;28;20136;-61
2022/06/07 03:05:29;;;;;;;0.55;0.30;;;12.30;99.90;;;;;;5020192;28;20041;-62
2022/06/07 03:07:54;;;;;;;0.00;0.00;;;12.30;99.90;;;;;;5019956;28;20535;-62
2022/06/07 03:10:20;;;;;;;0.35;0.22;;;12.30;99.90;;;;;;5019778;28;20065;-61
2022/06/07 03:12:46;;;;;;;0.10;0.10;;;12.30;99.90;;;;;;5019465;28;20048;-61
2022/06/07 03:15:13;;;;;;;0.10;0.10;;;12.30;99.90;;;;;;5020084;28;20079;-61
2022/06/07 03:17:39;;;;;;;0.43;0.30;;;12.30;99.90;;;;;;5019117;28;20255;-62
2022/06/07 03:20:06;;;;;;;0.30;0.30;;;12.30;99.90;;;;;;5018561;28;20281;-62
2022/06/07 03:22:34;;;;;;;0.38;0.17;;;12.30;99.90;;;;;;5020092;28;20048;-61
2022/06/07 03:25:05;;;;;;;0.10;0.10;;;12.30;99.90;;;;;;5019734;28;20045;-61
2022/06/07 03:27:36;;;;;;;0.30;0.30;;;12.30;99.90;;;;;;5019291;28;20049;-61
2022/06/07 03:30:07;;;;;;;0.43;0.38;;;12.20;99.90;;;;;;5019781;28;20049;-61
2022/06/07 03:32:34;;;;;;;0.90;0.60;;;12.30;99.90;;;;;;5018479;28;20045;-62
2022/06/07 03:34:59;;;;;;;0.32;0.22;;;12.30;99.90;;;;;;5019596;28;20045;-60
2022/06/07 03:37:25;;;;;;;0.63;0.60;;;12.30;99.90;;;;;;5019769;28;20060;-61
2022/06/07 03:39:51;;;;;;;0.00;0.00;;;12.30;99.90;;;;;;5019667;28;20048;-61
2022/06/07 03:42:18;;;;;;;0.40;0.30;;;12.30;99.90;;;;;;5018348;28;20042;-62
2022/06/07 03:44:48;;;;;;;0.45;0.45;;;12.30;99.90;;;;;;5021723;28;20037;-61
2022/06/07 03:47:20;;;;;;;0.10;0.10;;;12.30;99.90;;;;;;5028772;28;20121;-62
2022/06/07 03:49:48;;;;;;;0.88;0.43;;;12.30;99.90;;;;;;5019096;28;20046;-61
2022/06/07 03:52:15;;;;;;;0.20;0.20;;;12.30;99.90;;;;;;5020023;28;20404;-61
2022/06/07 03:54:42;;;;;;;2.65;0.50;;;12.30;99.90;;;;;;5020331;28;20033;-62
2022/06/07 03:57:09;;;;;;;0.25;0.25;;;12.30;99.90;;;;;;5018747;28;20052;-62
2022/06/07 03:59:36;;;;;;;0.30;0.30;;;12.30;99.90;;;;;;5018736;28;20114;-62
2022/06/07 04:02:02;;;;;;;0.20;0.20;;;12.30;99.90;;;;;;5017883;28;20068;-62
2022/06/07 04:04:28;;;;;;;0.03;0.03;;;12.40;99.90;;;;;;5019419;28;20042;-62
2022/06/07 04:09:41;;;;;;;0.22;0.22;;;12.40;99.90;;;;;;5019197;28;20096;-62
2022/06/07 04:12:09;;;;;;;0.13;0.10;;;12.40;99.90;;;;;;5018823;28;20492;-61
2022/06/07 04:14:40;;;;;;;0.28;0.28;;;12.40;99.90;;;;;;5017679;28;20894;-62
2022/06/07 04:17:06;;;;;;;0.20;0.20;;;12.40;99.90;;;;;;5019332;28;20124;-61
2022/06/07 04:19:37;;;;;;;0.00;0.00;;;12.40;99.90;;;;;;5018445;28;20202;-61
2022/06/07 04:22:04;;;;;;;0.10;0.10;;;12.40;99.90;;;;;;5019235;28;20087;-61
2022/06/07 04:24:30;;;;;;;0.25;0.17;;;12.40;99.90;;;;;;5019285;28;20045;-61
2022/06/07 04:26:55;;;;;;;0.35;0.28;;;12.40;99.90;;;;;;5018827;28;20053;-61
2022/06/07 04:29:22;;;;;;;0.08;0.08;;;12.40;99.90;;;;;;5016473;28;20056;-61
2022/06/07 04:31:48;;;;;;;0.32;0.10;;;12.40;99.90;;;;;;5019056;28;20053;-61
2022/06/07 04:34:14;;;;;;;0.05;0.05;;;12.40;99.90;;;;;;5019409;28;20037;-62
2022/06/07 04:36:39;;;;;;;0.20;0.13;;;12.40;99.90;;;;;;5018329;28;20049;-61
2022/06/07 04:39:06;;;;;;;0.00;0.00;;;12.40;99.90;;;;;;5019473;28;20742;-61
2022/06/07 04:41:32;;;;;;;0.60;0.32;;;12.40;99.90;;;;;;5018903;28;20046;-62
2022/06/07 04:43:58;;;;;;;0.10;0.10;;;12.40;99.90;;;;;;5019350;28;20099;-61
2022/06/07 04:46:26;;;;;;;0.13;0.10;;;12.40;99.90;;;;;;5030053;28;20095;-61
2022/06/07 04:48:52;;;;;;;0.20;0.10;;;12.40;99.90;;;;;;5042652;28;20044;-61
2022/06/07 04:51:27;;;;;;;0.28;0.28;;;12.40;99.90;;;;;;5040785;28;20675;-61
2022/06/07 04:53:55;;;;;;;0.00;0.00;;;12.40;99.90;;;;;;5041880;28;20466;-61
2022/06/07 04:56:24;;;;;;;0.20;0.10;;;12.40;99.90;;;;;;5042139;28;20048;-61
2022/06/07 04:58:50;;;;;;;0.45;0.35;;;12.50;99.90;;;;;;5041668;28;20041;-61
2022/06/07 05:01:25;;;;;;;0.63;0.30;;;12.40;99.90;;;;;;5041701;28;20455;-61
2022/06/07 05:03:51;;;;;;;;;;;12.30;99.90;;;;;;5042932;28;20124;-61
2022/06/07 05:06:22;;;;;;;0.25;0.25;;;12.30;99.90;;;;;;5042591;28;20481;-61
2022/06/07 05:08:49;;;;;;;0.10;0.10;;;12.20;99.90;;;;;;5041678;28;20037;-61
2022/06/07 05:11:15;;;;;;;0.35;0.17;;;12.20;99.90;;;;;;5042922;28;20063;-62
2022/06/07 05:13:41;;;;;;;0.10;0.10;;;12.10;99.90;;;;;;5041835;28;20454;-62
2022/06/07 05:16:07;;;;;;;0.25;0.20;;;12.10;99.90;;;;;;5041744;28;20045;-62
2022/06/07 05:18:33;;;;;;;0.30;0.30;;;12.00;99.90;;;;;;5042264;28;20510;-62
2022/06/07 05:20:58;;;;;;;1.40;0.32;;;12.00;99.90;;;;;;5041633;28;20084;-62
2022/06/07 05:23:24;;;;;;;0.43;0.38;;;11.90;99.90;;;;;;5041970;28;20049;-62
2022/06/07 05:26:18;;;;;;;0.17;0.10;;;11.90;99.90;;;;;;5041909;28;20470;-61
2022/06/07 05:28:44;;;;;;;0.43;0.25;;;11.90;99.90;;;;;;5056807;28;20119;-61
2022/06/07 05:31:10;;;;;;;0.20;0.20;;;11.90;99.90;;;;;;5041575;28;20111;-61
2022/06/07 05:33:36;;;;;;;0.00;0.00;;;11.90;99.90;;;;;;5040372;28;20067;-62
2022/06/07 05:36:03;;;;;;;0.30;0.30;;;11.90;99.90;;;;;;5041570;28;20389;-63
2022/06/07 05:38:29;;;;;;;0.05;0.05;;;12.00;99.90;;;;;;5041306;28;20130;-61
2022/06/07 05:40:55;;;;;;;0.25;0.25;;;12.00;99.90;;;;;;5040588;28;20500;-62
2022/06/07 05:43:21;;;;;;;0.20;0.13;;;12.00;99.90;;;;;;5040404;28;20033;-62
2022/06/07 05:45:51;;;;;;;0.20;0.20;;;12.00;99.90;;;;;;5035117;28;20086;-61
2022/06/07 05:48:17;;;;;;;0.98;0.57;;;12.00;99.90;;;;;;5022685;28;20052;-61
2022/06/07 05:50:44;;;;;;;0.15;0.15;;;12.00;99.90;;;;;;5021982;28;20041;-61
2022/06/07 05:53:13;;;;;;;0.30;0.20;;;12.00;99.90;;;;;;5020101;28;20084;-62
2022/06/07 05:55:38;;;;;;;0.00;0.00;;;12.00;99.90;;;;;;5020382;28;20142;-61
2022/06/07 05:58:04;;;;;;;0.10;0.10;;;12.00;99.90;;;;;;5019844;28;20089;-61
2022/06/07 06:00:30;;;;;;;0.00;0.00;;;12.00;99.90;;;;;;5020446;28;20526;-63
2022/06/07 06:02:56;;;;;;;0.17;0.17;;;11.90;99.90;;;;;;5021178;28;20660;-61
2022/06/07 06:05:22;;;;;;;0.10;0.08;;;11.80;99.90;;;;;;5020562;28;20052;-62
2022/06/07 06:10:32;;;;;;;0.00;0.00;;;11.80;99.90;;;;;;5020383;28;20524;-62
2022/06/07 06:12:58;;;;;;;0.20;0.20;;;11.80;99.90;;;;;;5018840;28;20056;-62
2022/06/07 06:15:24;;;;;;;0.13;0.13;;;11.70;99.90;;;;;;5021106;28;20037;-63
2022/06/07 06:17:49;;;;;;;0.20;0.20;;;11.70;99.90;;;;;;5021209;28;20056;-62
2022/06/07 06:20:15;;;;;;;0.00;0.00;;;11.60;99.90;;;;;;5020350;28;20084;-62
2022/06/07 06:22:41;;;;;;;0.65;0.60;;;11.60;99.90;;;;;;5020182;28;20060;-61
2022/06/07 06:25:08;;;;;;;0.10;0.10;;;11.70;99.90;;;;;;5020736;28;20060;-61
2022/06/07 06:27:35;;;;;;;0.32;0.32;;;11.70;99.90;;;;;;5018733;28;20051;-61
2022/06/07 06:30:01;;;;;;;0.60;0.30;;;11.60;99.90;;;;;;5020361;28;20045;-62
2022/06/07 06:32:27;;;;;;;0.00;0.00;;;11.70;99.90;;;;;;5020992;28;20048;-61
2022/06/07 06:34:53;;;;;;;0.10;0.10;;;11.60;99.90;;;;;;5020690;28;20480;-62
2022/06/07 06:37:18;;;;;;;0.00;0.00;;;11.60;99.90;;;;;;5019476;28;20044;-61
2022/06/07 06:39:44;;;;;;;0.10;0.10;;;11.60;99.90;;;;;;5020974;28;20068;-61
2022/06/07 06:42:11;;;;;;;0.93;0.82;;;11.60;99.90;;;;;;5020270;28;20139;-61
2022/06/07 06:44:37;;;;;;;0.00;0.00;;;11.60;99.90;;;;;;5037106;28;20080;-62
2022/06/07 06:47:03;;;;;;;0.00;0.00;;;11.60;99.90;;;;;;5028200;28;20527;-61
2022/06/07 06:49:29;;;;;;;0.00;0.00;;;11.60;99.90;;;;;;5020666;28;20037;-61
2022/06/07 06:51:57;;;;;;;0.20;0.20;;;11.70;99.90;;;;;;5020570;28;20077;-61
2022/06/07 06:54:23;;;;;;;0.20;0.10;;;11.70;99.90;;;;;;5019223;28;20077;-61
2022/06/07 06:56:49;;;;;;;0.10;0.10;;;11.80;99.90;;;;;;5019883;28;20128;-60
2022/06/07 06:59:15;;;;;;;0.00;0.00;;;11.70;99.90;;;;;;5021037;28;20041;-62
2022/06/07 07:01:42;;;;;;;0.00;0.00;;;11.80;99.90;;;;;;5020676;28;20084;-60
2022/06/07 07:04:11;;;;;;;0.20;0.20;;;11.80;99.90;;;;;;5019251;28;20045;-62
2022/06/07 07:06:38;;;;;;;0.10;0.08;;;11.80;99.90;;;;;;5019199;28;20496;-62
2022/06/07 07:09:06;;;;;;;0.10;0.10;;;11.80;99.90;;;;;;5020141;28;20041;-61
2022/06/07 07:11:39;;;;;;;0.05;0.05;;;11.80;99.90;;;;;;5019304;28;20055;-62
2022/06/07 07:14:06;;;;;;;0.00;0.00;;;11.80;99.90;;;;;;5019505;28;20484;-62
2022/06/07 07:16:36;;;;;;;0.08;0.08;;;11.70;99.90;;;;;;5020156;28;20408;-62
2022/06/07 07:19:04;;;;;;;0.10;0.10;;;11.50;99.90;;;;;;5034347;28;20045;-63
2022/06/07 07:21:35;;;;;;;0.30;0.30;;;11.50;99.90;;;;;;5032731;28;20163;-62
2022/06/07 07:24:06;;;;;;;0.10;0.10;;;11.50;99.90;;;;;;5019975;28;20056;-61
2022/06/07 07:26:33;;;;;;;0.10;0.10;;;11.50;99.90;;;;;;5019390;28;20480;-61
2022/06/07 07:28:59;;;;;;;0.00;0.00;;;11.50;99.90;;;;;;5017807;28;20041;-61
2022/06/07 07:31:31;;;;;;;0.10;0.10;;;11.50;99.90;;;;;;5019755;28;20049;-62
2022/06/07 07:33:59;;;;;;;0.98;0.98;;;11.40;99.90;;;;;;5018683;28;20065;-61
2022/06/07 07:36:26;;;;;;;0.00;0.00;;;11.50;99.90;;;;;;5019889;28;20038;-61
2022/06/07 07:38:52;;;;;;;0.17;0.10;;;11.50;99.90;;;;;;5020069;28;20124;-61
2022/06/07 07:41:27;;;;;;;0.00;0.00;;;11.50;99.90;;;;;;5018698;28;20033;-61
2022/06/07 07:43:55;;;;;;;0.00;0.00;;;11.50;99.90;;;;;;5019461;28;20049;-61
2022/06/07 07:46:23;;;;;;;0.32;0.10;;;11.50;99.90;;;;;;5030681;28;20045;-61
2022/06/07 07:48:49;;;;;;;0.00;0.00;;;11.40;99.90;;;;;;5018460;28;20095;-61
2022/06/07 07:51:23;;;;;;;0.00;0.00;;;11.50;99.90;;;;;;5019959;28;20046;-62
2022/06/07 07:53:50;;;;;;;0.00;0.00;;;11.50;99.90;;;;;;5019488;28;20049;-62
2022/06/07 07:56:16;;;;;;;0.00;0.00;;;11.50;99.90;;;;;;5018771;28;20041;-61
2022/06/07 07:58:42;;;;;;;0.00;0.00;;;11.50;99.90;;;;;;5019327;28;20955;-61
2022/06/07 08:01:14;;;;;;;0.00;0.00;;;11.60;99.90;;;;;;5019503;28;20041;-61
2022/06/07 08:03:41;;;;;;;0.00;0.00;;;11.60;99.90;;;;;;5019355;28;20039;-61
2022/06/07 08:06:09;;;;;;;0.00;0.00;;;11.70;99.90;;;;;;5019179;28;20037;-61
2022/06/07 08:08:35;;;;;;;0.10;0.00;;;11.70;99.90;;;;;;5017871;28;20056;-61
2022/06/07 08:11:02;;;;;;;0.00;0.00;;;11.70;99.90;;;;;;5019036;28;20061;-62
2022/06/07 08:13:28;;;;;;;0.00;0.00;;;11.80;99.90;;;;;;5017887;28;20048;-61
2022/06/07 08:15:53;;;;;;;0.10;0.10;;;11.80;99.90;;;;;;5019175;28;20435;-66
2022/06/07 08:18:19;;;;;;;0.00;0.00;;;11.90;99.90;;;;;;5019185;28;20104;-65
2022/06/07 08:20:46;;;;;;;0.00;0.00;;;11.90;99.90;;;;;;5022755;28;20060;-64
2022/06/07 08:23:13;;;;;;;0.38;0.30;;;12.10;99.90;;;;;;5023007;28;20133;-64
2022/06/07 08:25:38;;;;;;;0.00;0.00;;;12.20;99.90;;;;;;5022941;28;20076;-65
2022/06/07 08:28:05;;;;;;;0.45;0.45;;;12.50;99.90;;;;;;5022735;28;20038;-63
2022/06/07 08:30:32;;;;;;;3.10;0.30;;;12.30;99.90;;;;;;5022530;28;20049;-64
2022/06/07 08:32:59;;;;;;;0.00;0.00;;;12.40;99.90;;;;;;5023100;28;20117;-63
2022/06/07 08:38:09;;;;;;;0.00;0.00;;;12.50;99.90;;;;;;5022291;28;20049;-64
2022/06/07 08:40:43;;;;;;;0.00;0.00;;;12.40;99.90;;;;;;5022737;28;20049;-64
2022/06/07 08:43:17;;;;;;;0.00;0.00;;;12.50;99.90;;;;;;5022704;28;20369;-63
2022/06/07 08:45:46;;;;;;;2.60;1.45;;;12.50;99.90;;;;;;5029772;28;20124;-65
2022/06/07 08:48:16;;;;;;;0.00;0.00;;;12.40;99.90;;;;;;5025888;28;20068;-64
2022/06/07 08:51:08;;;;;;;0.20;0.20;;;12.50;99.90;;;;;;5022714;28;20132;-63
2022/06/07 08:53:37;;;;;;;0.00;0.00;;;12.50;99.90;;;;;;5022775;28;20045;-64
2022/06/07 08:56:14;;;;;;;0.10;0.10;;;12.50;99.90;;;;;;5022094;28;20154;-64
2022/06/07 08:58:43;;;;;;;0.00;0.00;;;12.60;99.90;;;;;;5021770;28;20049;-64
2022/06/07 09:01:32;;;;;;;0.00;0.00;;;12.70;99.90;;;;;;5022540;28;20041;-64
2022/06/07 09:04:24;;;;;;;0.00;0.00;;;12.70;99.90;;;;;;5022846;28;20045;-63
2022/06/07 09:06:56;;;;;;;0.00;0.00;;;12.70;99.90;;;;;;5021906;28;20179;-63
2022/06/07 09:12:09;;;;;;;0.30;0.20;;;12.60;99.90;;;;;;5021980;28;20057;-63
2022/06/07 09:12:14;;;;;;;0.10;0.10;;;12.70;99.90;;;;;;5021153;28;20052;-64
2022/06/07 09:14:50;;;;;;;0.00;0.00;;;12.90;99.90;;;;;;5022662;28;20041;-64
2022/06/07 09:17:28;;;;;;;0.00;0.00;;;13.00;99.90;;;;;;5022140;28;20053;-64
2022/06/07 09:19:55;;;;;;;0.28;0.20;;;13.10;99.90;;;;;;5020979;28;20561;-64
2022/06/07 09:22:36;;;;;;;0.00;0.00;;;13.10;99.90;;;;;;5022261;28;20057;-64
2022/06/07 09:25:13;;;;;;;0.30;0.10;;;13.00;99.90;;;;;;5019971;28;20506;-64
2022/06/07 09:27:41;;;;;;;0.00;0.00;;;13.00;99.90;;;;;;5021327;28;20073;-67
2022/06/07 09:30:28;;;;;;;0.00;0.00;;;13.10;99.90;;;;;;5021568;28;20049;-63
2022/06/07 09:32:54;;;;;;;0.10;0.10;;;13.20;99.90;;;;;;5022164;28;20049;-64
2022/06/07 09:35:42;;;;;;;0.00;0.00;;;13.20;99.90;;;;;;5021995;28;20037;-63
2022/06/07 09:38:17;;;;;;;0.25;0.10;;;13.30;99.90;;;;;;5021979;28;20440;-63
2022/06/07 09:40:53;;;;;;;0.10;0.10;;;13.40;99.90;;;;;;5022201;28;20064;-62
2022/06/07 09:43:27;;;;;;;2.50;0.57;;;13.40;99.90;;;;;;5020986;28;20140;-63
2022/06/07 09:46:15;;;;;;;0.52;0.20;;;13.40;99.90;;;;;;5031158;28;20049;-64
2022/06/07 09:48:44;;;;;;;0.65;0.60;;;13.40;99.90;;;;;;5021873;28;20057;-63
2022/06/07 09:51:43;;;;;;;0.00;0.00;;;13.30;99.90;;;;;;5021688;28;20081;-63
2022/06/07 09:54:18;;;;;;;0.00;0.00;;;13.40;99.90;;;;;;5009405;28;20141;-64
2022/06/07 09:56:55;;;;;;;0.00;0.00;;;13.30;99.90;;;;;;5020074;28;20179;-63
2022/06/07 09:59:30;;;;;;;0.43;0.30;;;13.40;99.90;;;;;;5021583;28;20480;-64
2022/06/07 10:02:06;;;;;;;0.00;0.00;;;13.50;99.90;;;;;;5020192;28;20061;-62
2022/06/07 10:04:45;;;;;;;0.55;0.13;;;13.50;99.90;;;;;;5020469;28;20065;-63
2022/06/07 10:07:15;;;;;;;0.05;0.05;;;13.50;99.90;;;;;;5021389;28;20853;-62
2022/06/07 10:10:28;;;;;;;0.22;0.10;;;13.60;99.90;;;;;;5021065;28;20504;-62
2022/06/07 10:13:02;;;;;;;0.10;0.10;;;13.60;99.90;;;;;;5003114;28;20279;-63
2022/06/07 10:15:56;;;;;;;0.10;0.10;;;13.60;99.90;;;;;;5021230;28;20586;-63
2022/06/07 10:18:56;;;;;;;0.00;0.00;;;13.70;99.90;;;;;;5020507;28;20173;-62
2022/06/07 10:21:59;;;;;;;0.00;0.00;;;13.70;99.90;;;;;;5020785;28;20049;-62
2022/06/07 10:24:52;;;;;;;0.10;0.10;;;13.80;99.90;;;;;;5020920;28;20049;-62
2022/06/07 10:27:23;;;;;;;0.00;0.00;;;14.10;99.90;;;;;;5020129;28;20209;-62
2022/06/07 10:30:03;;;;;;;0.00;0.00;;;14.10;99.90;;;;;;5020833;28;20124;-64
2022/06/07 10:32:32;;;;;;;0.60;0.50;;;14.00;99.90;;;;;;5020561;28;20037;-63
2022/06/07 10:35:27;;;;;;;0.00;0.00;;;14.10;99.90;;;;;;5020471;28;20042;-66
2022/06/07 10:38:02;;;;;;;0.10;0.10;;;14.10;99.90;;;;;;5020698;28;20085;-66
2022/06/07 10:40:54;;;;;;;0.00;0.00;;;14.10;99.90;;;;;;5020910;28;20046;-63
2022/06/07 10:43:28;;;;;;;0.00;0.00;;;14.10;99.90;;;;;;5007265;28;20061;-63
2022/06/07 10:46:00;;;;;;;0.00;0.00;;;14.10;99.90;;;;;;5029581;28;20052;-63
2022/06/07 10:48:38;;;;;;;0.20;0.20;;;14.10;99.90;;;;;;5020583;28;20412;-64
2022/06/07 10:54:13;;;;;;;0.95;0.95;;;14.30;99.90;;;;;;5020181;28;20411;-64
2022/06/07 10:56:44;;;;;;;0.00;0.00;;;14.20;99.90;;;;;;5019251;28;20432;-64
2022/06/07 10:59:20;;;;;;;0.00;0.00;;;14.10;99.90;;;;;;5020777;28;20045;-64
2022/06/07 11:02:00;;;;;;;0.00;0.00;;;14.10;99.90;;;;;;5020342;28;20045;-63
2022/06/07 11:10:17;;;;;;;0.00;0.00;;;14.20;99.90;;;;;;5040502;28;20053;-65
2022/06/07 11:13:18;;;;;;;0.00;0.00;;;14.20;99.90;;;;;;5038012;28;20060;-63
2022/06/07 11:15:55;;;;;;;0.10;0.10;;;14.30;99.90;;;;;;5009007;28;20112;-63
2022/06/07 11:18:24;;;;;;;0.00;0.00;;;14.20;99.90;;;;;;5027815;28;20462;-63
2022/06/07 11:21:02;;;;;;;0.00;0.00;;;14.10;99.90;;;;;;5029277;28;20124;-64
2022/06/07 11:23:46;;;;;;;0.43;0.08;;;14.20;99.90;;;;;;5043401;28;20037;-63
2022/06/07 11:26:17;;;;;;;0.00;0.00;;;14.10;99.90;;;;;;5029018;28;20686;-64
2022/06/07 11:28:53;;;;;;;0.10;0.10;;;14.10;99.90;;;;;;5028794;28;20208;-62
2022/06/07 11:31:34;;;;;;;0.00;0.00;;;14.20;99.90;;;;;;5027580;28;20045;-63
2022/06/07 11:34:30;;;;;;;0.03;0.03;;;14.40;99.90;;;;;;5019905;28;20069;-64
2022/06/07 11:37:09;;;;;;;0.00;0.00;;;14.50;99.90;;;;;;5019621;28;20041;-61
2022/06/07 11:39:38;;;;;;;0.20;0.20;;;14.70;99.90;;;;;;5019111;28;20057;-63
2022/06/07 11:42:20;;;;;;;0.00;0.00;;;14.80;99.90;;;;;;5018902;28;20064;-63
2022/06/07 11:45:03;;;;;;;0.00;0.00;;;15.00;99.90;;;;;;5021700;28;20049;-62
2022/06/07 11:48:03;;;;;;;0.17;0.17;;;15.10;99.90;;;;;;5030794;28;20049;-64
2022/06/07 11:50:47;;;;;;;0.00;0.00;;;15.00;99.90;;;;;;5031836;28;20098;-64
2022/06/07 11:53:34;;;;;;;0.00;0.00;;;14.80;99.90;;;;;;5039506;28;20055;-61
2022/06/07 11:56:11;;;;;;;0.08;0.08;;;14.60;99.90;;;;;;5038508;28;20052;-65
2022/06/07 11:58:50;;;;;;;0.00;0.00;;;14.50;99.90;;;;;;5037580;28;20518;-59
2022/06/07 12:01:45;;;;;;;0.10;0.10;;;14.40;99.90;;;;;;5039000;28;20045;-59
2022/06/07 12:04:33;;;;;;;0.00;0.00;;;14.40;99.90;;;;;;5028282;28;20078;-58
2022/06/07 12:07:29;;;;;;;0.00;0.00;;;14.40;99.90;;;;;;5039254;28;20053;-59
2022/06/07 12:09:59;;;;;;;0.00;0.00;;;14.40;99.90;;;;;;5037481;28;20506;-59
2022/06/07 12:12:24;;;;;;;1.25;0.30;;;14.30;99.90;;;;;;5037838;28;20572;-59
2022/06/07 12:14:58;;;;;;;0.35;0.35;;;14.40;99.90;;;;;;5038182;28;20139;-58
2022/06/07 12:17:29;;;;;;;0.08;0.00;;;14.40;99.90;;;;;;5038903;28;20084;-58
2022/06/07 12:19:57;;;;;;;0.00;0.00;;;14.40;99.90;;;;;;5038681;28;20121;-58
2022/06/07 12:22:24;;;;;;;0.00;0.00;;;14.60;99.90;;;;;;5038208;28;20041;-58
2022/06/07 12:25:11;;;;;;;0.00;0.00;;;14.80;99.90;;;;;;5039058;28;20132;-58
2022/06/07 12:28:04;;;;;;;0.00;0.00;;;15.10;99.90;;;;;;5037658;28;20055;-58
2022/06/07 12:30:30;;;;;;;0.00;0.00;;;15.30;99.90;;;;;;5049922;28;20176;-59
2022/06/07 12:33:11;;;;;;;0.10;0.10;;;15.40;99.90;;;;;;5038170;28;20049;-58
2022/06/07 12:35:51;;;;;;;0.00;0.00;;;15.60;99.90;;;;;;5038686;28;20052;-58
2022/06/07 12:38:16;;;;;;;0.98;0.13;;;15.60;99.90;;;;;;5036258;28;20053;-59
2022/06/07 12:40:45;;;;;;;0.00;0.00;;;15.60;99.90;;;;;;5039247;28;20384;-59
2022/06/07 12:43:32;;;;;;;0.00;0.00;;;15.60;99.90;;;;;;5038407;28;20114;-58
2022/06/07 12:46:07;;;;;;;0.00;0.00;;;15.40;99.90;;;;;;5032244;28;20068;-58
2022/06/07 12:48:39;;;;;;;0.00;0.00;;;15.40;99.90;;;;;;5018950;28;20117;-59
2022/06/07 12:51:35;;;;;;;0.00;0.00;;;15.30;99.90;;;;;;5018524;28;20098;-58
2022/06/07 12:54:17;;;;;;;0.00;0.00;;;15.30;99.90;;;;;;5018549;28;20045;-59
2022/06/07 12:56:46;;;;;;;0.00;0.00;;;15.50;99.90;;;;;;5018296;28;20053;-58
2022/06/07 12:59:35;;;;;;;0.00;0.00;;;15.30;99.90;;;;;;5019236;28;20117;-58
2022/06/07 13:02:17;;;;;;;0.00;0.00;;;15.20;99.90;;;;;;5018634;28;20049;-58
2022/06/07 13:04:49;;;;;;;0.00;0.00;;;15.20;99.90;;;;;;5019248;28;20044;-59
2022/06/07 13:07:25;;;;;;;0.00;0.00;;;15.10;99.90;;;;;;5022598;28;20125;-58
2022/06/07 13:09:58;;;;;;;0.00;0.00;;;15.10;99.90;;;;;;5022744;28;20072;-61
2022/06/07 13:12:29;;;;;;;0.00;0.00;;;15.30;99.90;;;;;;5027075;28;20041;-61
2022/06/07 13:14:56;;;;;;;0.00;0.00;;;15.40;99.90;;;;;;5028412;28;20044;-55
2022/06/07 13:17:32;;;;;;;0.00;0.00;;;15.60;99.90;;;;;;5026218;28;20337;-62
2022/06/07 13:19:59;;;;;;;0.00;0.00;;;15.60;99.90;;;;;;5026501;28;20094;-61
2022/06/07 13:22:27;;;;;;;0.20;0.10;;;15.70;99.90;;;;;;5028380;28;20147;-61
2022/06/07 13:25:03;;;;;;;0.08;0.08;;;15.70;99.90;;;;;;5028424;28;20404;-61
2022/06/07 13:27:51;;;;;;;0.10;0.10;;;15.70;99.90;;;;;;5026425;28;20447;-61
2022/06/07 13:30:32;;;;;;;0.55;0.55;;;15.90;99.90;;;;;;5027657;28;20040;-61
2022/06/07 13:33:04;;;;;;;0.10;0.10;;;16.10;99.90;;;;;;5028380;28;20049;-61